sensor_id;sensor_type;location;lat;lon;timestamp;pressure;altitude;pressure_sealevel;temperature
70050;BMP180;57391;51.306;22.680;2023-07-24T00:00:16;99099.00;;;21.60
70050;BMP180;57391;51.306;22.680;2023-07-24T00:03:03;99103.40;;;21.60
70050;BMP180;57391;51.306;22.680;2023-07-24T00:05:29;99104.60;;;21.60
70050;BMP180;57391;51.306;22.680;2023-07-24T00:07:56;99105.00;;;21.60
70050;BMP180;57391;51.306;22.680;2023-07-24T00:10:23;99101.60;;;21.60
70050;BMP180;57391;51.306;22.680;2023-07-24T00:12:50;99101.20;;;21.60
70050;BMP180;57391;51.306;22.680;2023-07-24T00:15:17;99099.80;;;21.60
70050;BMP180;57391;51.306;22.680;2023-07-24T00:17:44;99100.80;;;21.60
70050;BMP180;57391;51.306;22.680;2023-07-24T00:20:11;99094.20;;;21.60
70050;BMP180;57391;51.306;22.680;2023-07-24T00:22:38;99099.00;;;21.60
70050;BMP180;57391;51.306;22.680;2023-07-24T00:25:05;99094.60;;;21.56
70050;BMP180;57391;51.306;22.680;2023-07-24T00:27:32;99098.20;;;21.56
70050;BMP180;57391;51.306;22.680;2023-07-24T00:29:59;99104.40;;;21.60
70050;BMP180;57391;51.306;22.680;2023-07-24T00:32:27;99109.00;;;21.60
70050;BMP180;57391;51.306;22.680;2023-07-24T00:34:55;99108.60;;;21.60
70050;BMP180;57391;51.306;22.680;2023-07-24T00:37:24;99107.80;;;21.60
70050;BMP180;57391;51.306;22.680;2023-07-24T00:39:51;99105.20;;;21.60
70050;BMP180;57391;51.306;22.680;2023-07-24T00:42:18;99106.60;;;21.68
70050;BMP180;57391;51.306;22.680;2023-07-24T00:44:45;99105.20;;;21.70
70050;BMP180;57391;51.306;22.680;2023-07-24T00:47:11;99100.20;;;21.70
70050;BMP180;57391;51.306;22.680;2023-07-24T00:49:39;99101.40;;;21.70
70050;BMP180;57391;51.306;22.680;2023-07-24T00:52:07;99106.60;;;21.80
70050;BMP180;57391;51.306;22.680;2023-07-24T00:54:34;99103.80;;;21.80
70050;BMP180;57391;51.306;22.680;2023-07-24T00:57:03;99107.00;;;21.80
70050;BMP180;57391;51.306;22.680;2023-07-24T00:59:32;99104.40;;;21.80
70050;BMP180;57391;51.306;22.680;2023-07-24T01:01:59;99102.60;;;21.80
70050;BMP180;57391;51.306;22.680;2023-07-24T01:04:26;99106.40;;;21.80
70050;BMP180;57391;51.306;22.680;2023-07-24T01:06:54;99099.40;;;21.80
70050;BMP180;57391;51.306;22.680;2023-07-24T01:09:22;99096.00;;;21.84
70050;BMP180;57391;51.306;22.680;2023-07-24T01:12:00;99097.80;;;21.84
70050;BMP180;57391;51.306;22.680;2023-07-24T01:15:09;99096.80;;;21.80
70050;BMP180;57391;51.306;22.680;2023-07-24T01:17:50;99093.60;;;21.80
70050;BMP180;57391;51.306;22.680;2023-07-24T01:20:21;99094.20;;;21.80
70050;BMP180;57391;51.306;22.680;2023-07-24T01:23:09;99093.60;;;21.80
70050;BMP180;57391;51.306;22.680;2023-07-24T01:25:54;99089.40;;;21.80
70050;BMP180;57391;51.306;22.680;2023-07-24T01:28:21;99093.00;;;21.80
70050;BMP180;57391;51.306;22.680;2023-07-24T01:30:48;99092.20;;;21.78
70050;BMP180;57391;51.306;22.680;2023-07-24T01:33:15;99091.20;;;21.74
70050;BMP180;57391;51.306;22.680;2023-07-24T01:35:43;99088.20;;;21.70
70050;BMP180;57391;51.306;22.680;2023-07-24T01:38:13;99093.20;;;21.72
70050;BMP180;57391;51.306;22.680;2023-07-24T01:40:41;99091.40;;;21.70
70050;BMP180;57391;51.306;22.680;2023-07-24T01:43:08;99092.40;;;21.70
70050;BMP180;57391;51.306;22.680;2023-07-24T01:45:35;99087.00;;;21.70
70050;BMP180;57391;51.306;22.680;2023-07-24T01:48:06;99088.80;;;21.70
70050;BMP180;57391;51.306;22.680;2023-07-24T01:50:33;99086.40;;;21.70
70050;BMP180;57391;51.306;22.680;2023-07-24T01:52:59;99085.80;;;21.70
70050;BMP180;57391;51.306;22.680;2023-07-24T01:55:26;99081.60;;;21.70
70050;BMP180;57391;51.306;22.680;2023-07-24T01:57:53;99075.80;;;21.70
70050;BMP180;57391;51.306;22.680;2023-07-24T02:00:20;99075.00;;;21.70
70050;BMP180;57391;51.306;22.680;2023-07-24T02:02:47;99074.40;;;21.70
70050;BMP180;57391;51.306;22.680;2023-07-24T02:05:14;99069.20;;;21.70
70050;BMP180;57391;51.306;22.680;2023-07-24T02:07:42;99067.20;;;21.70
70050;BMP180;57391;51.306;22.680;2023-07-24T02:10:09;99071.40;;;21.70
70050;BMP180;57391;51.306;22.680;2023-07-24T02:12:36;99067.00;;;21.70
70050;BMP180;57391;51.306;22.680;2023-07-24T02:15:03;99070.60;;;21.70
70050;BMP180;57391;51.306;22.680;2023-07-24T02:17:30;99072.00;;;21.70
70050;BMP180;57391;51.306;22.680;2023-07-24T02:19:57;99071.20;;;21.70
70050;BMP180;57391;51.306;22.680;2023-07-24T02:22:24;99074.60;;;21.62
70050;BMP180;57391;51.306;22.680;2023-07-24T02:24:51;99073.00;;;21.60
70050;BMP180;57391;51.306;22.680;2023-07-24T02:27:27;99070.40;;;21.60
70050;BMP180;57391;51.306;22.680;2023-07-24T02:29:58;99065.40;;;21.60
70050;BMP180;57391;51.306;22.680;2023-07-24T02:32:24;99067.20;;;21.60
70050;BMP180;57391;51.306;22.680;2023-07-24T02:34:52;99067.80;;;21.60
70050;BMP180;57391;51.306;22.680;2023-07-24T02:37:19;99070.80;;;21.60
70050;BMP180;57391;51.306;22.680;2023-07-24T02:39:46;99062.20;;;21.58
70050;BMP180;57391;51.306;22.680;2023-07-24T02:42:13;99062.20;;;21.54
70050;BMP180;57391;51.306;22.680;2023-07-24T02:44:40;99065.00;;;21.50
70050;BMP180;57391;51.306;22.680;2023-07-24T02:47:07;99065.20;;;21.50
70050;BMP180;57391;51.306;22.680;2023-07-24T02:49:33;99064.00;;;21.50
70050;BMP180;57391;51.306;22.680;2023-07-24T02:52:00;99065.20;;;21.50
70050;BMP180;57391;51.306;22.680;2023-07-24T02:54:27;99066.00;;;21.50
70050;BMP180;57391;51.306;22.680;2023-07-24T02:56:54;99064.20;;;21.50
70050;BMP180;57391;51.306;22.680;2023-07-24T02:59:21;99063.60;;;21.48
70050;BMP180;57391;51.306;22.680;2023-07-24T03:01:48;99055.60;;;21.40
70050;BMP180;57391;51.306;22.680;2023-07-24T03:04:15;99054.60;;;21.40
70050;BMP180;57391;51.306;22.680;2023-07-24T03:06:42;99055.40;;;21.40
70050;BMP180;57391;51.306;22.680;2023-07-24T03:09:09;99058.00;;;21.40
70050;BMP180;57391;51.306;22.680;2023-07-24T03:11:35;99056.60;;;21.38
70050;BMP180;57391;51.306;22.680;2023-07-24T03:14:03;99057.80;;;21.30
70050;BMP180;57391;51.306;22.680;2023-07-24T03:16:29;99059.20;;;21.30
70050;BMP180;57391;51.306;22.680;2023-07-24T03:18:57;99059.80;;;21.30
70050;BMP180;57391;51.306;22.680;2023-07-24T03:21:24;99061.80;;;21.30
70050;BMP180;57391;51.306;22.680;2023-07-24T03:23:51;99056.20;;;21.30
70050;BMP180;57391;51.306;22.680;2023-07-24T03:26:18;99057.00;;;21.30
70050;BMP180;57391;51.306;22.680;2023-07-24T03:28:46;99057.00;;;21.30
70050;BMP180;57391;51.306;22.680;2023-07-24T03:31:13;99054.00;;;21.30
70050;BMP180;57391;51.306;22.680;2023-07-24T03:33:40;99049.80;;;21.28
70050;BMP180;57391;51.306;22.680;2023-07-24T03:36:07;99050.40;;;21.28
70050;BMP180;57391;51.306;22.680;2023-07-24T03:38:34;99052.40;;;21.30
70050;BMP180;57391;51.306;22.680;2023-07-24T03:41:01;99049.80;;;21.30
70050;BMP180;57391;51.306;22.680;2023-07-24T03:43:30;99051.60;;;21.30
70050;BMP180;57391;51.306;22.680;2023-07-24T03:45:57;99058.00;;;21.30
70050;BMP180;57391;51.306;22.680;2023-07-24T03:48:23;99058.00;;;21.30
70050;BMP180;57391;51.306;22.680;2023-07-24T03:50:59;99049.80;;;21.30
70050;BMP180;57391;51.306;22.680;2023-07-24T03:53:26;99055.80;;;21.32
70050;BMP180;57391;51.306;22.680;2023-07-24T03:55:54;99059.20;;;21.40
70050;BMP180;57391;51.306;22.680;2023-07-24T03:58:21;99055.20;;;21.36
70050;BMP180;57391;51.306;22.680;2023-07-24T04:00:48;99058.40;;;21.40
70050;BMP180;57391;51.306;22.680;2023-07-24T04:03:15;99060.00;;;21.40
70050;BMP180;57391;51.306;22.680;2023-07-24T04:05:42;99050.00;;;21.40
70050;BMP180;57391;51.306;22.680;2023-07-24T04:08:09;99049.20;;;21.40
70050;BMP180;57391;51.306;22.680;2023-07-24T04:10:36;99052.60;;;21.40
70050;BMP180;57391;51.306;22.680;2023-07-24T04:13:03;99051.40;;;21.40
70050;BMP180;57391;51.306;22.680;2023-07-24T04:15:33;99050.60;;;21.40
70050;BMP180;57391;51.306;22.680;2023-07-24T04:18:00;99048.40;;;21.40
70050;BMP180;57391;51.306;22.680;2023-07-24T04:20:27;99050.20;;;21.40
70050;BMP180;57391;51.306;22.680;2023-07-24T04:22:53;99053.20;;;21.40
70050;BMP180;57391;51.306;22.680;2023-07-24T04:25:21;99057.40;;;21.40
70050;BMP180;57391;51.306;22.680;2023-07-24T04:27:48;99054.60;;;21.40
70050;BMP180;57391;51.306;22.680;2023-07-24T04:30:15;99051.20;;;21.40
70050;BMP180;57391;51.306;22.680;2023-07-24T04:32:42;99072.60;;;21.40
70050;BMP180;57391;51.306;22.680;2023-07-24T04:35:09;99076.80;;;21.40
70050;BMP180;57391;51.306;22.680;2023-07-24T04:37:36;99075.20;;;21.40
70050;BMP180;57391;51.306;22.680;2023-07-24T04:40:04;99073.20;;;21.40
70050;BMP180;57391;51.306;22.680;2023-07-24T04:42:31;99076.20;;;21.40
70050;BMP180;57391;51.306;22.680;2023-07-24T04:44:58;99071.20;;;21.40
70050;BMP180;57391;51.306;22.680;2023-07-24T04:47:25;99070.60;;;21.40
70050;BMP180;57391;51.306;22.680;2023-07-24T04:49:52;99071.40;;;21.40
70050;BMP180;57391;51.306;22.680;2023-07-24T04:52:18;99072.20;;;21.40
70050;BMP180;57391;51.306;22.680;2023-07-24T04:54:45;99073.20;;;21.40
70050;BMP180;57391;51.306;22.680;2023-07-24T04:57:12;99074.40;;;21.40
70050;BMP180;57391;51.306;22.680;2023-07-24T04:59:39;99079.00;;;21.44
70050;BMP180;57391;51.306;22.680;2023-07-24T05:02:06;99074.40;;;21.50
70050;BMP180;57391;51.306;22.680;2023-07-24T05:04:35;99072.00;;;21.50
70050;BMP180;57391;51.306;22.680;2023-07-24T05:07:02;99069.60;;;21.52
70050;BMP180;57391;51.306;22.680;2023-07-24T05:09:29;99070.20;;;21.60
70050;BMP180;57391;51.306;22.680;2023-07-24T05:11:56;99067.40;;;21.60
70050;BMP180;57391;51.306;22.680;2023-07-24T05:14:23;99066.20;;;21.60
70050;BMP180;57391;51.306;22.680;2023-07-24T05:16:50;99076.80;;;21.68
70050;BMP180;57391;51.306;22.680;2023-07-24T05:19:16;99078.60;;;21.70
70050;BMP180;57391;51.306;22.680;2023-07-24T05:21:43;99077.60;;;21.70
70050;BMP180;57391;51.306;22.680;2023-07-24T05:24:10;99076.00;;;21.80
70050;BMP180;57391;51.306;22.680;2023-07-24T05:26:37;99070.00;;;21.80
70050;BMP180;57391;51.306;22.680;2023-07-24T05:29:04;99074.40;;;21.84
70050;BMP180;57391;51.306;22.680;2023-07-24T05:31:30;99075.60;;;21.90
70050;BMP180;57391;51.306;22.680;2023-07-24T05:33:57;99070.00;;;21.98
70050;BMP180;57391;51.306;22.680;2023-07-24T05:36:24;99069.60;;;22.00
70050;BMP180;57391;51.306;22.680;2023-07-24T05:38:52;99068.60;;;22.00
70050;BMP180;57391;51.306;22.680;2023-07-24T05:41:21;99068.40;;;22.10
70050;BMP180;57391;51.306;22.680;2023-07-24T05:43:48;99068.00;;;22.10
70050;BMP180;57391;51.306;22.680;2023-07-24T05:46:14;99063.20;;;22.32
70050;BMP180;57391;51.306;22.680;2023-07-24T05:48:41;99061.60;;;22.66
70050;BMP180;57391;51.306;22.680;2023-07-24T05:51:08;99059.40;;;23.12
70050;BMP180;57391;51.306;22.680;2023-07-24T05:53:35;99054.60;;;23.66
70050;BMP180;57391;51.306;22.680;2023-07-24T05:56:03;99051.80;;;24.22
70050;BMP180;57391;51.306;22.680;2023-07-24T05:58:30;99052.40;;;24.86
70050;BMP180;57391;51.306;22.680;2023-07-24T06:00:57;99051.40;;;25.46
70050;BMP180;57391;51.306;22.680;2023-07-24T06:03:24;99054.80;;;25.90
70050;BMP180;57391;51.306;22.680;2023-07-24T06:05:55;99062.00;;;26.08
70050;BMP180;57391;51.306;22.680;2023-07-24T06:08:22;99052.80;;;26.00
70050;BMP180;57391;51.306;22.680;2023-07-24T06:10:50;99049.80;;;25.90
70050;BMP180;57391;51.306;22.680;2023-07-24T06:13:18;99044.60;;;25.80
70050;BMP180;57391;51.306;22.680;2023-07-24T06:15:47;99045.00;;;25.78
70050;BMP180;57391;51.306;22.680;2023-07-24T06:18:15;99047.20;;;25.90
70050;BMP180;57391;51.306;22.680;2023-07-24T06:20:42;99043.80;;;26.34
70050;BMP180;57391;51.306;22.680;2023-07-24T06:23:08;99039.80;;;27.00
70050;BMP180;57391;51.306;22.680;2023-07-24T06:25:35;99043.40;;;27.74
70050;BMP180;57391;51.306;22.680;2023-07-24T06:28:02;99037.40;;;28.34
70050;BMP180;57391;51.306;22.680;2023-07-24T06:30:29;99048.60;;;29.02
70050;BMP180;57391;51.306;22.680;2023-07-24T06:32:56;99046.60;;;29.58
70050;BMP180;57391;51.306;22.680;2023-07-24T06:35:23;99044.40;;;30.04
70050;BMP180;57391;51.306;22.680;2023-07-24T06:37:49;99044.60;;;30.40
70050;BMP180;57391;51.306;22.680;2023-07-24T06:40:16;99044.80;;;30.54
70050;BMP180;57391;51.306;22.680;2023-07-24T06:42:43;99044.40;;;30.68
70050;BMP180;57391;51.306;22.680;2023-07-24T06:45:10;99033.20;;;30.80
70050;BMP180;57391;51.306;22.680;2023-07-24T06:47:37;99041.20;;;30.60
70050;BMP180;57391;51.306;22.680;2023-07-24T06:50:05;99040.20;;;30.20
70050;BMP180;57391;51.306;22.680;2023-07-24T06:52:32;99044.80;;;29.90
70050;BMP180;57391;51.306;22.680;2023-07-24T06:55:00;99042.60;;;29.50
70050;BMP180;57391;51.306;22.680;2023-07-24T06:57:26;99042.20;;;29.10
70050;BMP180;57391;51.306;22.680;2023-07-24T06:59:53;99049.80;;;28.80
70050;BMP180;57391;51.306;22.680;2023-07-24T07:02:20;99044.80;;;28.78
70050;BMP180;57391;51.306;22.680;2023-07-24T07:04:47;99044.60;;;28.80
70050;BMP180;57391;51.306;22.680;2023-07-24T07:07:14;99037.60;;;28.96
70050;BMP180;57391;51.306;22.680;2023-07-24T07:09:41;99038.60;;;29.10
70050;BMP180;57391;51.306;22.680;2023-07-24T07:12:08;99032.60;;;29.24
70050;BMP180;57391;51.306;22.680;2023-07-24T07:14:35;99037.80;;;29.60
70050;BMP180;57391;51.306;22.680;2023-07-24T07:17:02;99033.40;;;29.94
70050;BMP180;57391;51.306;22.680;2023-07-24T07:19:29;99037.20;;;30.24
70050;BMP180;57391;51.306;22.680;2023-07-24T07:21:56;99040.60;;;30.60
70050;BMP180;57391;51.306;22.680;2023-07-24T07:24:23;99034.80;;;30.96
70050;BMP180;57391;51.306;22.680;2023-07-24T07:26:50;99032.60;;;31.20
70050;BMP180;57391;51.306;22.680;2023-07-24T07:29:17;99029.60;;;31.50
70050;BMP180;57391;51.306;22.680;2023-07-24T07:31:44;99028.80;;;31.68
70050;BMP180;57391;51.306;22.680;2023-07-24T07:34:11;99030.20;;;32.10
70050;BMP180;57391;51.306;22.680;2023-07-24T07:36:38;99027.60;;;32.14
70050;BMP180;57391;51.306;22.680;2023-07-24T07:39:05;99034.20;;;32.00
70050;BMP180;57391;51.306;22.680;2023-07-24T07:41:32;99032.80;;;31.80
70050;BMP180;57391;51.306;22.680;2023-07-24T07:43:59;99041.60;;;31.70
70050;BMP180;57391;51.306;22.680;2023-07-24T07:46:26;99039.60;;;31.60
70050;BMP180;57391;51.306;22.680;2023-07-24T07:48:52;99030.40;;;31.40
70050;BMP180;57391;51.306;22.680;2023-07-24T07:51:19;99035.00;;;31.20
70050;BMP180;57391;51.306;22.680;2023-07-24T07:53:46;99032.80;;;31.00
70050;BMP180;57391;51.306;22.680;2023-07-24T07:56:13;99030.00;;;30.90
70050;BMP180;57391;51.306;22.680;2023-07-24T07:58:40;99035.20;;;30.80
70050;BMP180;57391;51.306;22.680;2023-07-24T08:01:07;99032.80;;;30.80
70050;BMP180;57391;51.306;22.680;2023-07-24T08:03:34;99034.00;;;30.74
70050;BMP180;57391;51.306;22.680;2023-07-24T08:06:01;99031.80;;;30.54
70050;BMP180;57391;51.306;22.680;2023-07-24T08:08:28;99037.20;;;30.40
70050;BMP180;57391;51.306;22.680;2023-07-24T08:10:55;99035.20;;;30.20
70050;BMP180;57391;51.306;22.680;2023-07-24T08:13:22;99036.80;;;30.00
70050;BMP180;57391;51.306;22.680;2023-07-24T08:15:49;99035.80;;;29.90
70050;BMP180;57391;51.306;22.680;2023-07-24T08:18:16;99037.00;;;29.80
70050;BMP180;57391;51.306;22.680;2023-07-24T08:20:43;99041.40;;;29.70
70050;BMP180;57391;51.306;22.680;2023-07-24T08:23:10;99045.60;;;29.60
70050;BMP180;57391;51.306;22.680;2023-07-24T08:25:37;99048.40;;;29.50
70050;BMP180;57391;51.306;22.680;2023-07-24T08:28:04;99047.40;;;29.40
70050;BMP180;57391;51.306;22.680;2023-07-24T08:30:33;99052.40;;;29.30
70050;BMP180;57391;51.306;22.680;2023-07-24T08:33:00;99056.20;;;29.30
70050;BMP180;57391;51.306;22.680;2023-07-24T08:35:27;99051.00;;;29.24
70050;BMP180;57391;51.306;22.680;2023-07-24T08:37:54;99042.40;;;29.20
70050;BMP180;57391;51.306;22.680;2023-07-24T08:40:21;99037.80;;;29.10
70050;BMP180;57391;51.306;22.680;2023-07-24T08:42:52;99046.80;;;29.00
70050;BMP180;57391;51.306;22.680;2023-07-24T08:45:20;99045.40;;;29.04
70050;BMP180;57391;51.306;22.680;2023-07-24T08:47:48;99042.40;;;29.18
70050;BMP180;57391;51.306;22.680;2023-07-24T08:50:17;99036.00;;;29.20
70050;BMP180;57391;51.306;22.680;2023-07-24T08:52:44;99038.40;;;29.20
70050;BMP180;57391;51.306;22.680;2023-07-24T08:55:13;99045.20;;;29.20
70050;BMP180;57391;51.306;22.680;2023-07-24T08:57:40;99046.80;;;29.20
70050;BMP180;57391;51.306;22.680;2023-07-24T09:00:07;99042.20;;;29.20
70050;BMP180;57391;51.306;22.680;2023-07-24T09:02:35;99055.00;;;29.10
70050;BMP180;57391;51.306;22.680;2023-07-24T09:05:03;99052.20;;;29.10
70050;BMP180;57391;51.306;22.680;2023-07-24T09:07:31;99049.00;;;29.10
70050;BMP180;57391;51.306;22.680;2023-07-24T09:09:58;99037.20;;;29.10
70050;BMP180;57391;51.306;22.680;2023-07-24T09:12:25;99041.40;;;29.00
70050;BMP180;57391;51.306;22.680;2023-07-24T09:15:05;99037.00;;;28.90
70050;BMP180;57391;51.306;22.680;2023-07-24T09:17:32;99037.20;;;29.00
70050;BMP180;57391;51.306;22.680;2023-07-24T09:19:58;99040.60;;;29.06
70050;BMP180;57391;51.306;22.680;2023-07-24T09:22:25;99035.20;;;29.10
70050;BMP180;57391;51.306;22.680;2023-07-24T09:24:56;99037.20;;;29.10
70050;BMP180;57391;51.306;22.680;2023-07-24T09:27:27;99032.80;;;29.20
70050;BMP180;57391;51.306;22.680;2023-07-24T09:29:56;99025.80;;;29.42
70050;BMP180;57391;51.306;22.680;2023-07-24T09:32:26;99029.60;;;29.72
70050;BMP180;57391;51.306;22.680;2023-07-24T09:34:53;99020.80;;;30.02
70050;BMP180;57391;51.306;22.680;2023-07-24T09:37:30;99025.40;;;30.30
70050;BMP180;57391;51.306;22.680;2023-07-24T09:39:57;99030.20;;;30.60
70050;BMP180;57391;51.306;22.680;2023-07-24T09:42:36;99030.00;;;30.80
70050;BMP180;57391;51.306;22.680;2023-07-24T09:45:04;99026.20;;;31.00
70050;BMP180;57391;51.306;22.680;2023-07-24T09:47:31;99031.40;;;31.10
70050;BMP180;57391;51.306;22.680;2023-07-24T09:50:03;99023.20;;;31.30
70050;BMP180;57391;51.306;22.680;2023-07-24T09:52:30;99020.00;;;31.40
70050;BMP180;57391;51.306;22.680;2023-07-24T09:55:25;99013.40;;;31.52
70050;BMP180;57391;51.306;22.680;2023-07-24T09:57:58;99010.00;;;31.72
70050;BMP180;57391;51.306;22.680;2023-07-24T10:00:25;99003.60;;;31.90
70050;BMP180;57391;51.306;22.680;2023-07-24T10:02:54;98999.00;;;32.00
70050;BMP180;57391;51.306;22.680;2023-07-24T10:05:26;98999.40;;;32.00
70050;BMP180;57391;51.306;22.680;2023-07-24T10:07:55;98997.20;;;32.06
70050;BMP180;57391;51.306;22.680;2023-07-24T10:10:23;98992.60;;;32.12
70050;BMP180;57391;51.306;22.680;2023-07-24T10:12:51;98984.60;;;32.30
70050;BMP180;57391;51.306;22.680;2023-07-24T10:15:19;98983.40;;;32.30
70050;BMP180;57391;51.306;22.680;2023-07-24T10:17:46;98978.40;;;32.40
70050;BMP180;57391;51.306;22.680;2023-07-24T10:20:16;98979.00;;;32.50
70050;BMP180;57391;51.306;22.680;2023-07-24T10:22:44;98976.40;;;32.60
70050;BMP180;57391;51.306;22.680;2023-07-24T10:25:12;98975.20;;;32.70
70050;BMP180;57391;51.306;22.680;2023-07-24T10:27:44;98973.20;;;32.70
70050;BMP180;57391;51.306;22.680;2023-07-24T10:30:12;98973.00;;;32.70
70050;BMP180;57391;51.306;22.680;2023-07-24T10:32:46;98966.40;;;32.70
70050;BMP180;57391;51.306;22.680;2023-07-24T10:35:14;98962.40;;;32.70
70050;BMP180;57391;51.306;22.680;2023-07-24T10:37:40;98957.80;;;32.80
70050;BMP180;57391;51.306;22.680;2023-07-24T10:40:19;98954.60;;;32.90
70050;BMP180;57391;51.306;22.680;2023-07-24T10:42:47;98952.60;;;32.90
70050;BMP180;57391;51.306;22.680;2023-07-24T10:45:25;98959.00;;;32.78
70050;BMP180;57391;51.306;22.680;2023-07-24T10:47:53;98948.60;;;32.50
70050;BMP180;57391;51.306;22.680;2023-07-24T10:50:21;98954.20;;;32.20
70050;BMP180;57391;51.306;22.680;2023-07-24T10:52:48;98954.40;;;32.10
70050;BMP180;57391;51.306;22.680;2023-07-24T10:55:15;98950.60;;;31.98
70050;BMP180;57391;51.306;22.680;2023-07-24T10:57:42;98945.80;;;31.90
70050;BMP180;57391;51.306;22.680;2023-07-24T11:00:09;98939.00;;;31.80
70050;BMP180;57391;51.306;22.680;2023-07-24T11:02:36;98938.20;;;31.56
70050;BMP180;57391;51.306;22.680;2023-07-24T11:05:04;98931.40;;;31.50
70050;BMP180;57391;51.306;22.680;2023-07-24T11:07:32;98920.40;;;31.58
70050;BMP180;57391;51.306;22.680;2023-07-24T11:10:00;98919.20;;;31.70
70050;BMP180;57391;51.306;22.680;2023-07-24T11:12:27;98923.00;;;31.70
70050;BMP180;57391;51.306;22.680;2023-07-24T11:14:57;98919.60;;;31.60
70050;BMP180;57391;51.306;22.680;2023-07-24T11:17:36;98910.80;;;31.50
70050;BMP180;57391;51.306;22.680;2023-07-24T11:20:12;98918.60;;;31.30
70050;BMP180;57391;51.306;22.680;2023-07-24T11:22:41;98913.80;;;31.10
70050;BMP180;57391;51.306;22.680;2023-07-24T11:25:10;98907.80;;;30.80
70050;BMP180;57391;51.306;22.680;2023-07-24T11:27:42;98912.20;;;30.62
70050;BMP180;57391;51.306;22.680;2023-07-24T11:30:20;98913.80;;;30.50
70050;BMP180;57391;51.306;22.680;2023-07-24T11:32:49;98915.20;;;30.46
70050;BMP180;57391;51.306;22.680;2023-07-24T11:35:16;98914.00;;;30.40
70050;BMP180;57391;51.306;22.680;2023-07-24T11:37:43;98916.00;;;30.40
70050;BMP180;57391;51.306;22.680;2023-07-24T11:40:10;98913.60;;;30.36
70050;BMP180;57391;51.306;22.680;2023-07-24T11:42:43;98912.00;;;30.40
70050;BMP180;57391;51.306;22.680;2023-07-24T11:45:11;98917.20;;;30.40
70050;BMP180;57391;51.306;22.680;2023-07-24T11:47:56;98915.60;;;30.48
70050;BMP180;57391;51.306;22.680;2023-07-24T11:50:23;98922.80;;;30.60
70050;BMP180;57391;51.306;22.680;2023-07-24T11:52:52;98921.40;;;30.58
70050;BMP180;57391;51.306;22.680;2023-07-24T11:55:31;98915.60;;;30.50
70050;BMP180;57391;51.306;22.680;2023-07-24T11:58:00;98921.00;;;30.50
70050;BMP180;57391;51.306;22.680;2023-07-24T12:00:28;98915.60;;;30.50
70050;BMP180;57391;51.306;22.680;2023-07-24T12:03:01;98918.40;;;30.50
70050;BMP180;57391;51.306;22.680;2023-07-24T12:05:41;98918.20;;;30.50
70050;BMP180;57391;51.306;22.680;2023-07-24T12:08:12;98910.60;;;30.40
70050;BMP180;57391;51.306;22.680;2023-07-24T12:10:41;98915.20;;;30.40
70050;BMP180;57391;51.306;22.680;2023-07-24T12:13:08;98916.60;;;30.30
70050;BMP180;57391;51.306;22.680;2023-07-24T12:15:34;98912.80;;;30.30
70050;BMP180;57391;51.306;22.680;2023-07-24T12:18:02;98905.40;;;30.30
70050;BMP180;57391;51.306;22.680;2023-07-24T12:20:29;98903.60;;;30.30
70050;BMP180;57391;51.306;22.680;2023-07-24T12:22:57;98897.80;;;30.30
70050;BMP180;57391;51.306;22.680;2023-07-24T12:25:24;98894.00;;;30.32
70050;BMP180;57391;51.306;22.680;2023-07-24T12:27:51;98889.40;;;30.40
70050;BMP180;57391;51.306;22.680;2023-07-24T12:30:19;98879.20;;;30.44
70050;BMP180;57391;51.306;22.680;2023-07-24T12:32:46;98876.00;;;30.48
70050;BMP180;57391;51.306;22.680;2023-07-24T12:35:15;98880.60;;;30.50
70050;BMP180;57391;51.306;22.680;2023-07-24T12:37:45;98876.40;;;30.50
70050;BMP180;57391;51.306;22.680;2023-07-24T12:40:13;98874.00;;;30.50
70050;BMP180;57391;51.306;22.680;2023-07-24T12:42:40;98870.60;;;30.50
70050;BMP180;57391;51.306;22.680;2023-07-24T12:45:07;98858.40;;;30.60
70050;BMP180;57391;51.306;22.680;2023-07-24T12:47:34;98862.80;;;30.74
70050;BMP180;57391;51.306;22.680;2023-07-24T12:50:01;98854.60;;;30.78
70050;BMP180;57391;51.306;22.680;2023-07-24T12:52:29;98849.80;;;30.80
70050;BMP180;57391;51.306;22.680;2023-07-24T12:54:56;98841.20;;;30.80
70050;BMP180;57391;51.306;22.680;2023-07-24T12:57:23;98840.80;;;30.90
70050;BMP180;57391;51.306;22.680;2023-07-24T12:59:50;98839.40;;;30.90
70050;BMP180;57391;51.306;22.680;2023-07-24T13:02:17;98825.60;;;30.98
70050;BMP180;57391;51.306;22.680;2023-07-24T13:04:43;98826.60;;;31.10
70050;BMP180;57391;51.306;22.680;2023-07-24T13:07:11;98824.00;;;31.10
70050;BMP180;57391;51.306;22.680;2023-07-24T13:09:37;98820.20;;;31.20
70050;BMP180;57391;51.306;22.680;2023-07-24T13:12:05;98815.00;;;31.20
70050;BMP180;57391;51.306;22.680;2023-07-24T13:14:32;98805.80;;;31.30
70050;BMP180;57391;51.306;22.680;2023-07-24T13:16:59;98809.00;;;31.40
70050;BMP180;57391;51.306;22.680;2023-07-24T13:19:26;98804.40;;;31.40
70050;BMP180;57391;51.306;22.680;2023-07-24T13:21:53;98789.40;;;31.40
70050;BMP180;57391;51.306;22.680;2023-07-24T13:24:19;98802.60;;;31.50
70050;BMP180;57391;51.306;22.680;2023-07-24T13:26:46;98800.20;;;31.40
70050;BMP180;57391;51.306;22.680;2023-07-24T13:29:13;98796.40;;;31.30
70050;BMP180;57391;51.306;22.680;2023-07-24T13:31:40;98795.00;;;31.20
70050;BMP180;57391;51.306;22.680;2023-07-24T13:34:07;98802.60;;;31.10
70050;BMP180;57391;51.306;22.680;2023-07-24T13:36:34;98789.80;;;31.00
70050;BMP180;57391;51.306;22.680;2023-07-24T13:39:04;98794.40;;;30.90
70050;BMP180;57391;51.306;22.680;2023-07-24T13:41:31;98791.00;;;30.92
70050;BMP180;57391;51.306;22.680;2023-07-24T13:43:58;98779.20;;;31.00
70050;BMP180;57391;51.306;22.680;2023-07-24T13:46:25;98774.60;;;31.00
70050;BMP180;57391;51.306;22.680;2023-07-24T13:48:52;98771.60;;;30.90
70050;BMP180;57391;51.306;22.680;2023-07-24T13:51:18;98772.00;;;30.80
70050;BMP180;57391;51.306;22.680;2023-07-24T13:53:45;98764.80;;;30.80
70050;BMP180;57391;51.306;22.680;2023-07-24T13:56:15;98761.40;;;30.70
70050;BMP180;57391;51.306;22.680;2023-07-24T13:58:41;98762.60;;;30.60
70050;BMP180;57391;51.306;22.680;2023-07-24T14:01:09;98767.20;;;30.60